This is the latest recevied weather packets stored in our database for station/object W0DXV. If no packets are shown the sender has not sent any weather packets the latest 1 day(s).
| Time | Temp. | Humidity | Pressure | Rain* | Wind** | Luminosity | Snow |
|---|---|---|---|---|---|---|---|
| 1778073682 | 17.78° C | 78% | 1009.8 hPa | 0 mm | 0 m/s | 81 W/m² | - |
| 1778073380 | 17.78° C | 77% | 1010 hPa | 0 mm | 0.45 m/s, 261° | 76 W/m² | - |
| 1778073076 | 17.78° C | 77% | 1009.5 hPa | 0 mm | 0.45 m/s, 281° | 84 W/m² | - |
| 1778072773 | 17.78° C | 76% | 1009.6 hPa | 0 mm | 0.45 m/s, 243° | 83 W/m² | - |
| 1778072470 | 17.78° C | 76% | 1009.6 hPa | 0 mm | 0.89 m/s, 248° | 88 W/m² | - |
| 1778072169 | 17.78° C | 77% | 1009.2 hPa | 0 mm | 0.89 m/s, 228° | 109 W/m² | - |
| 1778071866 | 17.78° C | 78% | 1009.5 hPa | 0 mm | 0.45 m/s, 233° | 125 W/m² | - |
| 1778071564 | 17.78° C | 77% | 1009.6 hPa | 0 mm | 0.45 m/s, 242° | 115 W/m² | - |
| 1778071261 | 17.78° C | 77% | 1009.8 hPa | 0 mm | 0.45 m/s, 244° | 107 W/m² | - |
| 1778070959 | 17.78° C | 77% | 1009.8 hPa | 0 mm | 0.89 m/s, 216° | 108 W/m² | - |
| 1778070657 | 17.22° C | 77% | 1010.1 hPa | 0 mm | 0 m/s | 105 W/m² | - |
| 1778070353 | 17.22° C | 78% | 1010.2 hPa | 0 mm | 0 m/s | 88 W/m² | - |
| 1778070051 | 17.22° C | 77% | 1010.2 hPa | 0 mm | 0 m/s | 85 W/m² | - |
| 1778069748 | 17.22° C | 77% | 1010.3 hPa | 0 mm | 0.45 m/s, 250° | 69 W/m² | - |
| 1778069445 | 17.22° C | 78% | 1010.4 hPa | 0 mm | 0.89 m/s, 241° | 44 W/m² | - |
| 1778069143 | 17.22° C | 78% | 1010.3 hPa | 0 mm | 0.45 m/s, 235° | 43 W/m² | - |
| 1778068840 | 17.22° C | 78% | 1010.5 hPa | 0 mm | 0.45 m/s, 247° | 53 W/m² | - |
| 1778068538 | 17.22° C | 77% | 1010.2 hPa | 0 mm | 0.45 m/s, 251° | 66 W/m² | - |
| 1778068236 | 16.67° C | 78% | 1010.1 hPa | 0 mm | 0.89 m/s, 238° | 59 W/m² | - |
| 1778067933 | 16.67° C | 78% | 1010.1 hPa | 0 mm | 0.45 m/s, 237° | 44 W/m² | - |
| 1778067632 | 16.67° C | 78% | 1010 hPa | 0 mm | 0.45 m/s, 238° | 39 W/m² | - |
| 1778067329 | 16.67° C | 79% | 1010.2 hPa | 0 mm | 0.45 m/s, 224° | 26 W/m² | - |
| 1778067026 | 16.67° C | 78% | 1010 hPa | 0 mm | 0.89 m/s, 233° | 26 W/m² | - |
| 1778066723 | 16.67° C | 78% | 1010.2 hPa | 0 mm | 0.45 m/s, 232° | 24 W/m² | - |
| 1778066420 | 16.67° C | 79% | 1010 hPa | 0 mm | 0.89 m/s, 231° | 19 W/m² | - |
* Rain latest hour (hover to see other rain measurements)
** Current wind speed in m/s (hover to see current wind gust speed)